Ruso, North Dakota
Current Conditions -  °F | °C
As of 11:54 AM on Sunday 21 Dec 2014 (Local Time) from KMOT Reporting Station
Clear Clear  
Wind Chill: 23°   Ceiling: Unl
Heat Index: 28°   Visibility: 10mi
Dew Point: 24°   Wind: 5mph
Humidity: 85%   Direction: 110°ESE
Pressure: 29.46"   Gusts: NA
Location:  47.84°N, 100.93°W
Report Text: KMOT 211754Z 11004KT 10SM CLR M02/M04 A2946 RMK AO2 SLP999 T10221044 11022 21094 58020
Loading
Personal Weather Stations






























Interactive Weather Map New forecast layout! Learn more

10-Day Weather Forecast

Advertisements
Track Severe Weather on mobile